07/02 --> 16/02: circulación inusual, eventos generalizados de lluvia y templado

Avatar de Usuario
Diecha
Mensajes: 14746
Registrado: Jue Ago 25, 2011 9:31 pm
Ubicación: Lomas de Zamora

Re: 07/02 --> 16/02: eventos generalizados de lluvia y templado

Mensaje por Diecha » Mar Feb 16, 2021 6:18 pm



Imagen

- Tandil 18 hs: SAZT 162100Z 18016KT 9999 SCT017 SCT018 19/16 Q1009
- Mar del Plata 18 hs: SAZM 162100Z 18011KT 9999 SCT016 OVC024 20/18 Q1008

Imagen

Avatar de Usuario
Diecha
Mensajes: 14746
Registrado: Jue Ago 25, 2011 9:31 pm
Ubicación: Lomas de Zamora

Re: 07/02 --> 16/02: eventos generalizados de lluvia y templado

Mensaje por Diecha » Mar Feb 16, 2021 7:27 pm



Imagen
Imagen



Imagen

- Tandil 19 hs: SAZT 162200Z 18015KT 9999 SCT015 SCT017 19/16 Q1009
- Mar del Plata 19 hs: SAZM 162200Z 17006KT 9999 SCT018 SCT024 OVC032 20/17 Q1008

Imagen

Avatar de Usuario
Diecha
Mensajes: 14746
Registrado: Jue Ago 25, 2011 9:31 pm
Ubicación: Lomas de Zamora

Re: 07/02 --> 16/02: eventos generalizados de lluvia y templado

Mensaje por Diecha » Mar Feb 16, 2021 9:01 pm

Imagen

Imagen
Spoiler
Mostrar
Imagen
Imagen
Imagen
Imagen
Imagen
Imagen
Imagen
Imagen
Imagen
Imagen
Imagen

Avatar de Usuario
Wyoming
Mensajes: 1195
Registrado: Jue Jun 22, 2017 12:15 pm
Ubicación: Fiske Menuco

Re: 07/02 --> 16/02: eventos generalizados de lluvia y templado

Mensaje por Wyoming » Mar Feb 16, 2021 10:12 pm

San Antonio Oeste 33,2/4,8 de extremos hoy. ¿Estará bien esa mínima? Viedma clavó 27,8/6,2 como para comparar.
Previously known as MarianoStorm.
Pasillo de los Tornados - Pasado y presente.
Me gustan los idiomas.

Avatar de Usuario
Diecha
Mensajes: 14746
Registrado: Jue Ago 25, 2011 9:31 pm
Ubicación: Lomas de Zamora

Re: 07/02 --> 16/02: eventos generalizados de lluvia y templado

Mensaje por Diecha » Mar Feb 16, 2021 10:20 pm



Danywilde
Mensajes: 2757
Registrado: Mar Ene 24, 2012 1:41 pm
Ubicación: Wilde, Buenos Aires

Re: 07/02 --> 16/02: eventos generalizados de lluvia y templado

Mensaje por Danywilde » Mar Feb 16, 2021 10:39 pm

EuWjRokXYAIXcCN.jpg
EuWjRbqXMAMJN0q.jpg
MAR DEL PLATA.

Avatar de Usuario
Diecha
Mensajes: 14746
Registrado: Jue Ago 25, 2011 9:31 pm
Ubicación: Lomas de Zamora

Re: 07/02 --> 16/02: eventos generalizados de lluvia y templado

Mensaje por Diecha » Mar Feb 16, 2021 10:50 pm


Avatar de Usuario
Porra
Mensajes: 4257
Registrado: Dom Jul 12, 2009 7:43 pm
Ubicación: Ciudad de Buenos Aires, Caballito

Re: 07/02 --> 16/02: eventos generalizados de lluvia y templado

Mensaje por Porra » Mar Feb 16, 2021 11:07 pm

Hay lloviznas entrando al AMBA, y no se si neblina hacia el río, muy raro como se ve.
"Dios me odia" y "estaba relampagueando como un campeon" son frases registradas por Porra Inc. Derechos reservados para su uso y difusión.

Avatar de Usuario
Diecha
Mensajes: 14746
Registrado: Jue Ago 25, 2011 9:31 pm
Ubicación: Lomas de Zamora

Re: 07/02 --> 16/02: eventos generalizados de lluvia y templado

Mensaje por Diecha » Mar Feb 16, 2021 11:30 pm

Imagen

Imagen
Spoiler
Mostrar
Imagen
Imagen
Imagen
Imagen
Imagen
ImagenImagen
Imagen
Imagen
Imagen
Imagen
Imagen

Avatar de Usuario
Maximus Rosario
Mensajes: 1846
Registrado: Jue Sep 20, 2018 8:54 pm
Ubicación: Rosario

Re: 07/02 --> 16/02: eventos generalizados de lluvia y templado

Mensaje por Maximus Rosario » Mié Feb 17, 2021 11:41 am

Buenas.
8,8º la mínima en Aero de Rosario.
Nena, vi un rayo... vuelvo en unas horas...
Te duele el calor y la humedad? Adermicina.
EMA Villa Gdor. Gálvez
EMA Villa Gdor. Gálvez Cooperativa

Responder